sensor_id;sensor_type;location;lat;lon;timestamp;P1;durP1;ratioP1;P2;durP2;ratioP2
8584;SDS011;7180;52.742;11.420;2023-05-20T00:01:28;7.47;;;7.07;;
8584;SDS011;7180;52.742;11.420;2023-05-20T00:03:53;7.50;;;7.20;;
8584;SDS011;7180;52.742;11.420;2023-05-20T00:06:19;7.50;;;7.10;;
8584;SDS011;7180;52.742;11.420;2023-05-20T00:08:44;7.80;;;7.40;;
8584;SDS011;7180;52.742;11.420;2023-05-20T00:11:10;7.87;;;7.40;;
8584;SDS011;7180;52.742;11.420;2023-05-20T00:13:35;7.53;;;7.23;;
8584;SDS011;7180;52.742;11.420;2023-05-20T00:16:00;7.77;;;7.37;;
8584;SDS011;7180;52.742;11.420;2023-05-20T00:18:26;7.80;;;7.30;;
8584;SDS011;7180;52.742;11.420;2023-05-20T00:20:51;7.70;;;7.30;;
8584;SDS011;7180;52.742;11.420;2023-05-20T00:23:18;7.60;;;7.20;;
8584;SDS011;7180;52.742;11.420;2023-05-20T00:25:43;7.73;;;7.33;;
8584;SDS011;7180;52.742;11.420;2023-05-20T00:28:08;7.50;;;7.10;;
8584;SDS011;7180;52.742;11.420;2023-05-20T00:30:34;7.70;;;7.10;;
8584;SDS011;7180;52.742;11.420;2023-05-20T00:32:59;7.60;;;7.20;;
8584;SDS011;7180;52.742;11.420;2023-05-20T00:35:24;7.47;;;7.00;;
8584;SDS011;7180;52.742;11.420;2023-05-20T00:37:50;7.80;;;7.40;;
8584;SDS011;7180;52.742;11.420;2023-05-20T00:40:15;8.10;;;7.70;;
8584;SDS011;7180;52.742;11.420;2023-05-20T00:42:40;7.53;;;7.13;;
8584;SDS011;7180;52.742;11.420;2023-05-20T00:45:06;7.77;;;7.27;;
8584;SDS011;7180;52.742;11.420;2023-05-20T00:47:32;7.50;;;7.00;;
8584;SDS011;7180;52.742;11.420;2023-05-20T00:49:58;7.33;;;7.00;;
8584;SDS011;7180;52.742;11.420;2023-05-20T00:52:24;7.70;;;7.10;;
8584;SDS011;7180;52.742;11.420;2023-05-20T00:54:51;7.30;;;7.00;;
8584;SDS011;7180;52.742;11.420;2023-05-20T00:57:16;7.40;;;7.00;;
8584;SDS011;7180;52.742;11.420;2023-05-20T00:59:43;8.00;;;7.60;;
8584;SDS011;7180;52.742;11.420;2023-05-20T01:02:09;8.00;;;7.53;;
8584;SDS011;7180;52.742;11.420;2023-05-20T01:04:34;7.67;;;7.27;;
8584;SDS011;7180;52.742;11.420;2023-05-20T01:07:01;7.70;;;7.17;;
8584;SDS011;7180;52.742;11.420;2023-05-20T01:09:29;7.30;;;6.90;;
8584;SDS011;7180;52.742;11.420;2023-05-20T01:12:30;7.47;;;7.00;;
8584;SDS011;7180;52.742;11.420;2023-05-20T01:14:53;7.80;;;7.30;;
8584;SDS011;7180;52.742;11.420;2023-05-20T01:17:25;7.30;;;7.00;;
8584;SDS011;7180;52.742;11.420;2023-05-20T01:19:51;7.77;;;7.33;;
8584;SDS011;7180;52.742;11.420;2023-05-20T01:24:49;7.63;;;7.23;;
8584;SDS011;7180;52.742;11.420;2023-05-20T01:27:17;7.53;;;7.03;;
8584;SDS011;7180;52.742;11.420;2023-05-20T01:29:44;7.30;;;7.00;;
8584;SDS011;7180;52.742;11.420;2023-05-20T01:32:15;7.60;;;7.20;;
8584;SDS011;7180;52.742;11.420;2023-05-20T01:34:44;7.40;;;7.00;;
8584;SDS011;7180;52.742;11.420;2023-05-20T01:37:12;7.57;;;7.17;;
8584;SDS011;7180;52.742;11.420;2023-05-20T01:39:38;8.20;;;7.70;;
8584;SDS011;7180;52.742;11.420;2023-05-20T01:42:05;8.17;;;7.77;;
8584;SDS011;7180;52.742;11.420;2023-05-20T01:44:32;7.70;;;7.30;;
8584;SDS011;7180;52.742;11.420;2023-05-20T01:46:58;7.97;;;7.57;;
8584;SDS011;7180;52.742;11.420;2023-05-20T01:49:24;7.90;;;7.50;;
8584;SDS011;7180;52.742;11.420;2023-05-20T01:51:49;7.90;;;7.40;;
8584;SDS011;7180;52.742;11.420;2023-05-20T01:54:14;7.70;;;7.30;;
8584;SDS011;7180;52.742;11.420;2023-05-20T01:56:40;7.23;;;6.93;;
8584;SDS011;7180;52.742;11.420;2023-05-20T01:59:05;8.00;;;7.50;;
8584;SDS011;7180;52.742;11.420;2023-05-20T02:01:30;8.20;;;7.70;;
8584;SDS011;7180;52.742;11.420;2023-05-20T02:03:55;7.70;;;7.30;;
8584;SDS011;7180;52.742;11.420;2023-05-20T02:06:21;7.70;;;7.23;;
8584;SDS011;7180;52.742;11.420;2023-05-20T02:08:46;8.07;;;7.60;;
8584;SDS011;7180;52.742;11.420;2023-05-20T02:11:11;7.80;;;7.40;;
8584;SDS011;7180;52.742;11.420;2023-05-20T02:13:37;7.90;;;7.40;;
8584;SDS011;7180;52.742;11.420;2023-05-20T02:16:03;8.13;;;7.60;;
8584;SDS011;7180;52.742;11.420;2023-05-20T02:18:28;8.60;;;8.00;;
8584;SDS011;7180;52.742;11.420;2023-05-20T02:20:53;7.97;;;7.47;;
8584;SDS011;7180;52.742;11.420;2023-05-20T02:23:19;7.67;;;7.27;;
8584;SDS011;7180;52.742;11.420;2023-05-20T02:25:44;7.60;;;7.20;;
8584;SDS011;7180;52.742;11.420;2023-05-20T02:28:09;7.47;;;7.07;;
8584;SDS011;7180;52.742;11.420;2023-05-20T02:30:38;7.73;;;7.33;;
8584;SDS011;7180;52.742;11.420;2023-05-20T02:33:03;7.70;;;7.30;;
8584;SDS011;7180;52.742;11.420;2023-05-20T02:35:28;8.33;;;7.83;;
8584;SDS011;7180;52.742;11.420;2023-05-20T02:37:54;7.70;;;7.17;;
8584;SDS011;7180;52.742;11.420;2023-05-20T02:40:19;8.13;;;7.63;;
8584;SDS011;7180;52.742;11.420;2023-05-20T02:42:44;8.57;;;8.17;;
8584;SDS011;7180;52.742;11.420;2023-05-20T02:45:10;8.40;;;7.90;;
8584;SDS011;7180;52.742;11.420;2023-05-20T02:47:36;7.97;;;7.60;;
8584;SDS011;7180;52.742;11.420;2023-05-20T02:50:01;8.20;;;7.80;;
8584;SDS011;7180;52.742;11.420;2023-05-20T02:52:27;7.80;;;7.40;;
8584;SDS011;7180;52.742;11.420;2023-05-20T02:54:52;7.87;;;7.47;;
8584;SDS011;7180;52.742;11.420;2023-05-20T02:57:17;7.70;;;7.30;;
8584;SDS011;7180;52.742;11.420;2023-05-20T02:59:42;7.73;;;7.17;;
8584;SDS011;7180;52.742;11.420;2023-05-20T03:02:08;6.97;;;6.67;;
8584;SDS011;7180;52.742;11.420;2023-05-20T03:04:33;7.30;;;6.93;;
8584;SDS011;7180;52.742;11.420;2023-05-20T03:07:02;7.40;;;7.00;;
8584;SDS011;7180;52.742;11.420;2023-05-20T03:09:27;7.70;;;7.30;;
8584;SDS011;7180;52.742;11.420;2023-05-20T03:11:53;7.77;;;7.23;;
8584;SDS011;7180;52.742;11.420;2023-05-20T03:14:18;7.80;;;7.40;;
8584;SDS011;7180;52.742;11.420;2023-05-20T03:16:43;8.10;;;7.50;;
8584;SDS011;7180;52.742;11.420;2023-05-20T03:19:09;8.30;;;7.80;;
8584;SDS011;7180;52.742;11.420;2023-05-20T03:21:34;8.37;;;7.80;;
8584;SDS011;7180;52.742;11.420;2023-05-20T03:24:00;7.90;;;7.43;;
8584;SDS011;7180;52.742;11.420;2023-05-20T03:26:25;8.17;;;7.60;;
8584;SDS011;7180;52.742;11.420;2023-05-20T03:28:50;7.73;;;7.33;;
8584;SDS011;7180;52.742;11.420;2023-05-20T03:31:15;8.50;;;7.97;;
8584;SDS011;7180;52.742;11.420;2023-05-20T03:33:41;7.90;;;7.50;;
8584;SDS011;7180;52.742;11.420;2023-05-20T03:36:06;8.00;;;7.60;;
8584;SDS011;7180;52.742;11.420;2023-05-20T03:38:32;8.10;;;7.70;;
8584;SDS011;7180;52.742;11.420;2023-05-20T03:40:57;8.10;;;7.70;;
8584;SDS011;7180;52.742;11.420;2023-05-20T03:43:22;8.10;;;7.60;;
8584;SDS011;7180;52.742;11.420;2023-05-20T03:45:49;7.90;;;7.40;;
8584;SDS011;7180;52.742;11.420;2023-05-20T03:48:14;7.73;;;7.40;;
8584;SDS011;7180;52.742;11.420;2023-05-20T03:50:39;8.00;;;7.50;;
8584;SDS011;7180;52.742;11.420;2023-05-20T03:53:05;8.23;;;7.73;;
8584;SDS011;7180;52.742;11.420;2023-05-20T03:55:30;8.30;;;7.80;;
8584;SDS011;7180;52.742;11.420;2023-05-20T03:57:56;8.00;;;7.60;;
8584;SDS011;7180;52.742;11.420;2023-05-20T04:00:21;7.73;;;7.33;;
8584;SDS011;7180;52.742;11.420;2023-05-20T04:02:46;8.00;;;7.60;;
8584;SDS011;7180;52.742;11.420;2023-05-20T04:05:12;8.03;;;7.43;;
8584;SDS011;7180;52.742;11.420;2023-05-20T04:07:37;8.17;;;7.73;;
8584;SDS011;7180;52.742;11.420;2023-05-20T04:10:03;8.20;;;7.70;;
8584;SDS011;7180;52.742;11.420;2023-05-20T04:12:29;8.13;;;7.73;;
8584;SDS011;7180;52.742;11.420;2023-05-20T04:14:59;7.80;;;7.40;;
8584;SDS011;7180;52.742;11.420;2023-05-20T04:17:27;8.00;;;7.60;;
8584;SDS011;7180;52.742;11.420;2023-05-20T04:19:56;8.03;;;7.63;;
8584;SDS011;7180;52.742;11.420;2023-05-20T04:22:23;8.50;;;7.90;;
8584;SDS011;7180;52.742;11.420;2023-05-20T04:24:48;8.20;;;7.80;;
8584;SDS011;7180;52.742;11.420;2023-05-20T04:27:14;8.57;;;8.03;;
8584;SDS011;7180;52.742;11.420;2023-05-20T04:29:40;7.93;;;7.50;;
8584;SDS011;7180;52.742;11.420;2023-05-20T04:32:09;8.23;;;7.73;;
8584;SDS011;7180;52.742;11.420;2023-05-20T04:34:35;7.60;;;7.00;;
8584;SDS011;7180;52.742;11.420;2023-05-20T04:37:01;7.27;;;6.87;;
8584;SDS011;7180;52.742;11.420;2023-05-20T04:39:26;7.30;;;6.80;;
8584;SDS011;7180;52.742;11.420;2023-05-20T04:41:52;7.40;;;6.77;;
8584;SDS011;7180;52.742;11.420;2023-05-20T04:44:19;7.10;;;6.70;;
8584;SDS011;7180;52.742;11.420;2023-05-20T04:46:44;7.80;;;7.40;;
8584;SDS011;7180;52.742;11.420;2023-05-20T04:49:10;8.30;;;7.70;;
8584;SDS011;7180;52.742;11.420;2023-05-20T04:51:35;7.77;;;7.37;;
8584;SDS011;7180;52.742;11.420;2023-05-20T04:54:01;8.40;;;7.90;;
8584;SDS011;7180;52.742;11.420;2023-05-20T04:56:26;9.00;;;8.43;;
8584;SDS011;7180;52.742;11.420;2023-05-20T04:58:51;10.23;;;9.53;;
8584;SDS011;7180;52.742;11.420;2023-05-20T05:01:17;9.20;;;8.57;;
8584;SDS011;7180;52.742;11.420;2023-05-20T05:03:42;8.00;;;7.60;;
8584;SDS011;7180;52.742;11.420;2023-05-20T05:06:07;8.90;;;8.40;;
8584;SDS011;7180;52.742;11.420;2023-05-20T05:08:33;9.20;;;8.67;;
8584;SDS011;7180;52.742;11.420;2023-05-20T05:10:58;8.93;;;8.43;;
8584;SDS011;7180;52.742;11.420;2023-05-20T05:13:23;8.07;;;7.67;;
8584;SDS011;7180;52.742;11.420;2023-05-20T05:15:56;8.70;;;8.10;;
8584;SDS011;7180;52.742;11.420;2023-05-20T05:18:25;8.60;;;8.10;;
8584;SDS011;7180;52.742;11.420;2023-05-20T05:20:57;8.13;;;7.73;;
8584;SDS011;7180;52.742;11.420;2023-05-20T05:23:26;7.47;;;7.00;;
8584;SDS011;7180;52.742;11.420;2023-05-20T05:25:51;7.80;;;7.20;;
8584;SDS011;7180;52.742;11.420;2023-05-20T05:28:17;7.60;;;7.20;;
8584;SDS011;7180;52.742;11.420;2023-05-20T05:30:42;7.60;;;7.10;;
8584;SDS011;7180;52.742;11.420;2023-05-20T05:33:07;7.70;;;7.20;;
8584;SDS011;7180;52.742;11.420;2023-05-20T05:35:33;7.80;;;7.20;;
8584;SDS011;7180;52.742;11.420;2023-05-20T05:37:58;7.20;;;6.70;;
8584;SDS011;7180;52.742;11.420;2023-05-20T05:40:23;7.70;;;7.30;;
8584;SDS011;7180;52.742;11.420;2023-05-20T05:42:49;7.60;;;7.10;;
8584;SDS011;7180;52.742;11.420;2023-05-20T05:45:14;7.63;;;7.10;;
8584;SDS011;7180;52.742;11.420;2023-05-20T05:47:39;8.10;;;7.50;;
8584;SDS011;7180;52.742;11.420;2023-05-20T05:50:05;8.43;;;7.93;;
8584;SDS011;7180;52.742;11.420;2023-05-20T05:52:30;9.13;;;8.40;;
8584;SDS011;7180;52.742;11.420;2023-05-20T05:54:55;8.80;;;8.20;;
8584;SDS011;7180;52.742;11.420;2023-05-20T05:57:21;9.10;;;8.50;;
8584;SDS011;7180;52.742;11.420;2023-05-20T05:59:46;8.47;;;7.97;;
8584;SDS011;7180;52.742;11.420;2023-05-20T06:02:11;9.03;;;8.43;;
8584;SDS011;7180;52.742;11.420;2023-05-20T06:04:38;9.03;;;8.53;;
8584;SDS011;7180;52.742;11.420;2023-05-20T06:07:03;8.83;;;8.33;;
8584;SDS011;7180;52.742;11.420;2023-05-20T06:09:29;9.70;;;9.00;;
8584;SDS011;7180;52.742;11.420;2023-05-20T06:11:54;9.27;;;8.57;;
8584;SDS011;7180;52.742;11.420;2023-05-20T06:14:19;9.43;;;8.73;;
8584;SDS011;7180;52.742;11.420;2023-05-20T06:16:45;9.83;;;9.03;;
8584;SDS011;7180;52.742;11.420;2023-05-20T06:19:10;9.63;;;8.93;;
8584;SDS011;7180;52.742;11.420;2023-05-20T06:21:35;9.27;;;8.77;;
8584;SDS011;7180;52.742;11.420;2023-05-20T06:24:01;9.37;;;8.77;;
8584;SDS011;7180;52.742;11.420;2023-05-20T06:26:26;9.20;;;8.70;;
8584;SDS011;7180;52.742;11.420;2023-05-20T06:28:51;9.50;;;9.00;;
8584;SDS011;7180;52.742;11.420;2023-05-20T06:31:17;9.83;;;9.17;;
8584;SDS011;7180;52.742;11.420;2023-05-20T06:33:42;10.00;;;9.30;;
8584;SDS011;7180;52.742;11.420;2023-05-20T06:36:07;11.03;;;10.13;;
8584;SDS011;7180;52.742;11.420;2023-05-20T06:38:33;9.60;;;9.00;;
8584;SDS011;7180;52.742;11.420;2023-05-20T06:40:58;10.70;;;10.00;;
8584;SDS011;7180;52.742;11.420;2023-05-20T06:43:23;9.40;;;8.80;;
8584;SDS011;7180;52.742;11.420;2023-05-20T06:45:49;9.33;;;8.83;;
8584;SDS011;7180;52.742;11.420;2023-05-20T06:48:14;9.57;;;8.97;;
8584;SDS011;7180;52.742;11.420;2023-05-20T06:50:40;10.37;;;9.50;;
8584;SDS011;7180;52.742;11.420;2023-05-20T06:53:05;9.77;;;9.00;;
8584;SDS011;7180;52.742;11.420;2023-05-20T06:55:31;9.73;;;8.93;;
8584;SDS011;7180;52.742;11.420;2023-05-20T06:57:56;9.40;;;8.63;;
8584;SDS011;7180;52.742;11.420;2023-05-20T07:00:21;9.80;;;9.10;;
8584;SDS011;7180;52.742;11.420;2023-05-20T07:02:47;9.60;;;9.00;;
8584;SDS011;7180;52.742;11.420;2023-05-20T07:05:12;10.00;;;9.30;;
8584;SDS011;7180;52.742;11.420;2023-05-20T07:07:37;9.87;;;9.17;;
8584;SDS011;7180;52.742;11.420;2023-05-20T07:10:03;9.23;;;8.63;;
8584;SDS011;7180;52.742;11.420;2023-05-20T07:12:30;9.10;;;8.60;;
8584;SDS011;7180;52.742;11.420;2023-05-20T07:14:55;9.07;;;8.47;;
8584;SDS011;7180;52.742;11.420;2023-05-20T07:17:20;8.70;;;8.20;;
8584;SDS011;7180;52.742;11.420;2023-05-20T07:19:46;9.70;;;9.10;;
8584;SDS011;7180;52.742;11.420;2023-05-20T07:22:11;9.40;;;8.80;;
8584;SDS011;7180;52.742;11.420;2023-05-20T07:24:36;9.23;;;8.50;;
8584;SDS011;7180;52.742;11.420;2023-05-20T07:27:02;9.80;;;9.10;;
8584;SDS011;7180;52.742;11.420;2023-05-20T07:29:27;8.67;;;8.17;;
8584;SDS011;7180;52.742;11.420;2023-05-20T07:31:53;9.30;;;8.80;;
8584;SDS011;7180;52.742;11.420;2023-05-20T07:34:18;8.00;;;7.60;;
8584;SDS011;7180;52.742;11.420;2023-05-20T07:36:43;9.23;;;8.63;;
8584;SDS011;7180;52.742;11.420;2023-05-20T07:39:09;9.70;;;9.00;;
8584;SDS011;7180;52.742;11.420;2023-05-20T07:41:35;8.40;;;7.90;;
8584;SDS011;7180;52.742;11.420;2023-05-20T07:44:01;8.83;;;8.23;;
8584;SDS011;7180;52.742;11.420;2023-05-20T07:46:29;8.97;;;8.27;;
8584;SDS011;7180;52.742;11.420;2023-05-20T07:48:54;9.27;;;8.67;;
8584;SDS011;7180;52.742;11.420;2023-05-20T07:51:20;8.03;;;7.37;;
8584;SDS011;7180;52.742;11.420;2023-05-20T07:53:45;8.10;;;7.60;;
8584;SDS011;7180;52.742;11.420;2023-05-20T07:56:10;7.77;;;7.37;;
8584;SDS011;7180;52.742;11.420;2023-05-20T07:58:36;8.20;;;7.60;;
8584;SDS011;7180;52.742;11.420;2023-05-20T08:01:01;7.67;;;7.27;;
8584;SDS011;7180;52.742;11.420;2023-05-20T08:03:26;7.80;;;7.40;;
8584;SDS011;7180;52.742;11.420;2023-05-20T08:05:51;8.17;;;7.67;;
8584;SDS011;7180;52.742;11.420;2023-05-20T08:08:17;7.67;;;7.13;;
8584;SDS011;7180;52.742;11.420;2023-05-20T08:10:42;7.17;;;6.77;;
8584;SDS011;7180;52.742;11.420;2023-05-20T08:13:07;7.27;;;6.77;;
8584;SDS011;7180;52.742;11.420;2023-05-20T08:15:32;7.97;;;7.57;;
8584;SDS011;7180;52.742;11.420;2023-05-20T08:18:00;8.70;;;8.20;;
8584;SDS011;7180;52.742;11.420;2023-05-20T08:20:25;8.47;;;7.97;;
8584;SDS011;7180;52.742;11.420;2023-05-20T08:22:50;7.80;;;7.40;;
8584;SDS011;7180;52.742;11.420;2023-05-20T08:25:16;8.00;;;7.60;;
8584;SDS011;7180;52.742;11.420;2023-05-20T08:27:41;8.27;;;7.77;;
8584;SDS011;7180;52.742;11.420;2023-05-20T08:30:07;8.30;;;7.60;;
8584;SDS011;7180;52.742;11.420;2023-05-20T08:32:33;8.07;;;7.40;;
8584;SDS011;7180;52.742;11.420;2023-05-20T08:34:59;8.10;;;7.60;;
8584;SDS011;7180;52.742;11.420;2023-05-20T08:37:26;8.00;;;7.50;;
8584;SDS011;7180;52.742;11.420;2023-05-20T08:39:52;8.03;;;7.33;;
8584;SDS011;7180;52.742;11.420;2023-05-20T08:42:21;7.80;;;7.33;;
8584;SDS011;7180;52.742;11.420;2023-05-20T08:44:47;7.67;;;7.17;;
8584;SDS011;7180;52.742;11.420;2023-05-20T08:47:12;7.87;;;7.27;;
8584;SDS011;7180;52.742;11.420;2023-05-20T08:49:37;8.07;;;7.60;;
8584;SDS011;7180;52.742;11.420;2023-05-20T08:52:03;8.10;;;7.50;;
8584;SDS011;7180;52.742;11.420;2023-05-20T08:54:35;8.10;;;7.60;;
8584;SDS011;7180;52.742;11.420;2023-05-20T08:57:08;8.23;;;7.73;;
8584;SDS011;7180;52.742;11.420;2023-05-20T08:59:34;8.17;;;7.63;;
8584;SDS011;7180;52.742;11.420;2023-05-20T09:02:00;8.50;;;7.90;;
8584;SDS011;7180;52.742;11.420;2023-05-20T09:04:25;8.30;;;7.80;;
8584;SDS011;7180;52.742;11.420;2023-05-20T09:06:51;8.20;;;7.70;;
8584;SDS011;7180;52.742;11.420;2023-05-20T09:09:16;8.23;;;7.73;;
8584;SDS011;7180;52.742;11.420;2023-05-20T09:11:41;8.07;;;7.47;;
8584;SDS011;7180;52.742;11.420;2023-05-20T09:14:07;8.17;;;7.67;;
8584;SDS011;7180;52.742;11.420;2023-05-20T09:16:33;8.30;;;7.80;;
8584;SDS011;7180;52.742;11.420;2023-05-20T09:18:58;8.27;;;7.70;;
8584;SDS011;7180;52.742;11.420;2023-05-20T09:21:27;8.50;;;7.97;;
8584;SDS011;7180;52.742;11.420;2023-05-20T09:23:53;8.80;;;8.20;;
8584;SDS011;7180;52.742;11.420;2023-05-20T09:26:21;8.80;;;8.10;;
8584;SDS011;7180;52.742;11.420;2023-05-20T09:28:47;8.60;;;8.10;;
8584;SDS011;7180;52.742;11.420;2023-05-20T09:31:12;8.33;;;7.73;;
8584;SDS011;7180;52.742;11.420;2023-05-20T09:33:39;8.60;;;8.00;;
8584;SDS011;7180;52.742;11.420;2023-05-20T09:36:08;8.67;;;7.97;;
8584;SDS011;7180;52.742;11.420;2023-05-20T09:38:35;8.73;;;8.23;;
8584;SDS011;7180;52.742;11.420;2023-05-20T09:41:06;8.60;;;8.00;;
8584;SDS011;7180;52.742;11.420;2023-05-20T09:43:35;8.50;;;7.90;;
8584;SDS011;7180;52.742;11.420;2023-05-20T09:46:01;9.33;;;8.63;;
8584;SDS011;7180;52.742;11.420;2023-05-20T09:48:28;9.07;;;8.50;;
8584;SDS011;7180;52.742;11.420;2023-05-20T09:50:54;8.70;;;8.20;;
8584;SDS011;7180;52.742;11.420;2023-05-20T09:53:21;9.03;;;8.50;;
8584;SDS011;7180;52.742;11.420;2023-05-20T09:55:51;9.00;;;8.40;;
8584;SDS011;7180;52.742;11.420;2023-05-20T09:58:16;9.40;;;8.77;;
8584;SDS011;7180;52.742;11.420;2023-05-20T10:00:44;9.17;;;8.60;;
8584;SDS011;7180;52.742;11.420;2023-05-20T10:03:10;9.40;;;8.80;;
8584;SDS011;7180;52.742;11.420;2023-05-20T10:05:36;9.57;;;8.87;;
8584;SDS011;7180;52.742;11.420;2023-05-20T10:10:58;9.17;;;8.60;;
8584;SDS011;7180;52.742;11.420;2023-05-20T10:16:25;8.70;;;8.20;;
8584;SDS011;7180;52.742;11.420;2023-05-20T10:21:31;9.00;;;8.50;;
8584;SDS011;7180;52.742;11.420;2023-05-20T10:24:06;8.60;;;8.00;;
8584;SDS011;7180;52.742;11.420;2023-05-20T10:29:12;9.10;;;8.50;;
8584;SDS011;7180;52.742;11.420;2023-05-20T10:31:43;9.90;;;9.30;;
8584;SDS011;7180;52.742;11.420;2023-05-20T10:34:13;9.20;;;8.60;;
8584;SDS011;7180;52.742;11.420;2023-05-20T10:36:44;9.00;;;8.30;;
8584;SDS011;7180;52.742;11.420;2023-05-20T10:39:15;8.60;;;8.00;;
8584;SDS011;7180;52.742;11.420;2023-05-20T10:41:41;8.50;;;7.93;;
8584;SDS011;7180;52.742;11.420;2023-05-20T10:44:07;8.50;;;8.00;;
8584;SDS011;7180;52.742;11.420;2023-05-20T10:46:33;8.63;;;8.13;;
8584;SDS011;7180;52.742;11.420;2023-05-20T10:49:01;9.30;;;8.70;;
8584;SDS011;7180;52.742;11.420;2023-05-20T10:51:30;8.90;;;8.40;;
8584;SDS011;7180;52.742;11.420;2023-05-20T10:54:00;8.97;;;8.37;;
8584;SDS011;7180;52.742;11.420;2023-05-20T10:56:25;9.07;;;8.50;;
8584;SDS011;7180;52.742;11.420;2023-05-20T10:58:51;9.13;;;8.57;;
8584;SDS011;7180;52.742;11.420;2023-05-20T11:01:18;9.43;;;8.83;;
8584;SDS011;7180;52.742;11.420;2023-05-20T11:03:48;9.47;;;8.80;;
8584;SDS011;7180;52.742;11.420;2023-05-20T11:06:14;9.47;;;8.97;;
8584;SDS011;7180;52.742;11.420;2023-05-20T11:08:41;9.37;;;8.77;;
8584;SDS011;7180;52.742;11.420;2023-05-20T11:11:07;8.83;;;8.20;;
8584;SDS011;7180;52.742;11.420;2023-05-20T11:13:34;9.43;;;8.73;;
8584;SDS011;7180;52.742;11.420;2023-05-20T11:16:00;9.20;;;8.60;;
8584;SDS011;7180;52.742;11.420;2023-05-20T11:18:26;9.07;;;8.47;;
8584;SDS011;7180;52.742;11.420;2023-05-20T11:20:55;9.20;;;8.53;;
8584;SDS011;7180;52.742;11.420;2023-05-20T11:23:20;9.77;;;9.07;;
8584;SDS011;7180;52.742;11.420;2023-05-20T11:25:48;9.63;;;9.03;;
8584;SDS011;7180;52.742;11.420;2023-05-20T11:28:14;8.77;;;8.27;;
8584;SDS011;7180;52.742;11.420;2023-05-20T11:30:43;9.40;;;8.80;;
8584;SDS011;7180;52.742;11.420;2023-05-20T11:33:12;9.90;;;9.20;;
8584;SDS011;7180;52.742;11.420;2023-05-20T11:35:48;9.70;;;9.10;;
8584;SDS011;7180;52.742;11.420;2023-05-20T11:38:15;9.60;;;9.00;;
8584;SDS011;7180;52.742;11.420;2023-05-20T11:40:43;9.63;;;9.03;;
8584;SDS011;7180;52.742;11.420;2023-05-20T11:43:12;9.97;;;9.37;;
8584;SDS011;7180;52.742;11.420;2023-05-20T11:45:42;10.00;;;9.20;;
8584;SDS011;7180;52.742;11.420;2023-05-20T11:48:08;9.90;;;9.30;;
8584;SDS011;7180;52.742;11.420;2023-05-20T11:50:38;9.80;;;9.20;;
8584;SDS011;7180;52.742;11.420;2023-05-20T11:53:06;9.47;;;8.87;;
8584;SDS011;7180;52.742;11.420;2023-05-20T11:55:32;9.20;;;8.60;;
8584;SDS011;7180;52.742;11.420;2023-05-20T11:57:58;9.60;;;9.00;;
8584;SDS011;7180;52.742;11.420;2023-05-20T12:00:25;12.53;;;11.53;;
8584;SDS011;7180;52.742;11.420;2023-05-20T12:02:50;10.20;;;9.57;;
8584;SDS011;7180;52.742;11.420;2023-05-20T12:05:15;10.17;;;9.57;;
8584;SDS011;7180;52.742;11.420;2023-05-20T12:07:41;9.70;;;9.10;;
8584;SDS011;7180;52.742;11.420;2023-05-20T12:10:07;10.10;;;9.43;;
8584;SDS011;7180;52.742;11.420;2023-05-20T12:12:33;10.80;;;9.93;;
8584;SDS011;7180;52.742;11.420;2023-05-20T12:15:00;10.03;;;9.43;;
8584;SDS011;7180;52.742;11.420;2023-05-20T12:17:26;10.47;;;9.80;;
8584;SDS011;7180;52.742;11.420;2023-05-20T12:19:51;10.30;;;9.63;;
8584;SDS011;7180;52.742;11.420;2023-05-20T12:22:17;9.40;;;8.90;;
8584;SDS011;7180;52.742;11.420;2023-05-20T12:24:42;9.53;;;8.93;;
8584;SDS011;7180;52.742;11.420;2023-05-20T12:27:07;9.93;;;9.33;;
8584;SDS011;7180;52.742;11.420;2023-05-20T12:29:32;10.07;;;9.37;;
8584;SDS011;7180;52.742;11.420;2023-05-20T12:31:58;9.97;;;9.37;;
8584;SDS011;7180;52.742;11.420;2023-05-20T12:34:24;10.07;;;9.37;;
8584;SDS011;7180;52.742;11.420;2023-05-20T12:36:50;9.73;;;9.13;;
8584;SDS011;7180;52.742;11.420;2023-05-20T12:39:15;9.83;;;9.27;;
8584;SDS011;7180;52.742;11.420;2023-05-20T12:41:42;10.20;;;9.60;;
8584;SDS011;7180;52.742;11.420;2023-05-20T12:44:07;10.17;;;9.57;;
8584;SDS011;7180;52.742;11.420;2023-05-20T12:46:34;10.00;;;9.40;;
8584;SDS011;7180;52.742;11.420;2023-05-20T12:49:00;10.30;;;9.70;;
8584;SDS011;7180;52.742;11.420;2023-05-20T12:51:26;10.30;;;9.70;;
8584;SDS011;7180;52.742;11.420;2023-05-20T12:53:51;9.87;;;9.20;;
8584;SDS011;7180;52.742;11.420;2023-05-20T12:56:16;9.90;;;9.20;;
8584;SDS011;7180;52.742;11.420;2023-05-20T12:58:43;9.30;;;8.70;;
8584;SDS011;7180;52.742;11.420;2023-05-20T13:01:08;8.87;;;8.30;;
8584;SDS011;7180;52.742;11.420;2023-05-20T13:03:33;9.80;;;9.03;;
8584;SDS011;7180;52.742;11.420;2023-05-20T13:05:58;9.73;;;9.03;;
8584;SDS011;7180;52.742;11.420;2023-05-20T13:08:24;10.23;;;9.43;;
8584;SDS011;7180;52.742;11.420;2023-05-20T13:10:50;10.17;;;9.47;;
8584;SDS011;7180;52.742;11.420;2023-05-20T13:13:15;10.20;;;9.60;;
8584;SDS011;7180;52.742;11.420;2023-05-20T13:15:45;10.30;;;9.60;;
8584;SDS011;7180;52.742;11.420;2023-05-20T13:18:10;9.97;;;9.30;;
8584;SDS011;7180;52.742;11.420;2023-05-20T13:20:36;9.30;;;8.70;;
8584;SDS011;7180;52.742;11.420;2023-05-20T13:23:01;9.80;;;9.20;;
8584;SDS011;7180;52.742;11.420;2023-05-20T13:25:27;10.73;;;10.13;;
8584;SDS011;7180;52.742;11.420;2023-05-20T13:27:53;10.77;;;10.07;;
8584;SDS011;7180;52.742;11.420;2023-05-20T13:30:18;11.00;;;10.30;;
8584;SDS011;7180;52.742;11.420;2023-05-20T13:32:44;10.80;;;10.10;;
8584;SDS011;7180;52.742;11.420;2023-05-20T13:35:09;10.60;;;9.90;;
8584;SDS011;7180;52.742;11.420;2023-05-20T13:37:36;9.97;;;9.27;;
8584;SDS011;7180;52.742;11.420;2023-05-20T13:40:02;10.30;;;9.60;;
8584;SDS011;7180;52.742;11.420;2023-05-20T13:42:27;10.07;;;9.47;;
8584;SDS011;7180;52.742;11.420;2023-05-20T13:44:52;10.60;;;9.90;;
8584;SDS011;7180;52.742;11.420;2023-05-20T13:47:18;10.40;;;9.70;;
8584;SDS011;7180;52.742;11.420;2023-05-20T13:49:43;10.13;;;9.53;;
8584;SDS011;7180;52.742;11.420;2023-05-20T13:52:08;9.50;;;9.00;;
8584;SDS011;7180;52.742;11.420;2023-05-20T13:54:33;10.10;;;9.40;;
8584;SDS011;7180;52.742;11.420;2023-05-20T13:56:59;9.73;;;9.13;;
8584;SDS011;7180;52.742;11.420;2023-05-20T13:59:25;10.27;;;9.60;;
8584;SDS011;7180;52.742;11.420;2023-05-20T14:01:52;10.00;;;9.40;;
8584;SDS011;7180;52.742;11.420;2023-05-20T14:04:17;10.40;;;9.70;;
8584;SDS011;7180;52.742;11.420;2023-05-20T14:06:42;10.60;;;9.90;;
8584;SDS011;7180;52.742;11.420;2023-05-20T14:09:08;10.70;;;10.00;;
8584;SDS011;7180;52.742;11.420;2023-05-20T14:11:33;10.13;;;9.53;;
8584;SDS011;7180;52.742;11.420;2023-05-20T14:13:58;9.90;;;9.30;;
8584;SDS011;7180;52.742;11.420;2023-05-20T14:16:23;10.20;;;9.60;;
8584;SDS011;7180;52.742;11.420;2023-05-20T14:18:49;9.73;;;9.23;;
8584;SDS011;7180;52.742;11.420;2023-05-20T14:21:14;10.37;;;9.67;;
8584;SDS011;7180;52.742;11.420;2023-05-20T14:23:39;9.63;;;9.00;;
8584;SDS011;7180;52.742;11.420;2023-05-20T14:26:08;10.70;;;9.90;;
8584;SDS011;7180;52.742;11.420;2023-05-20T14:28:33;10.20;;;9.60;;
8584;SDS011;7180;52.742;11.420;2023-05-20T14:30:59;9.97;;;9.37;;
8584;SDS011;7180;52.742;11.420;2023-05-20T14:33:24;10.00;;;9.40;;
8584;SDS011;7180;52.742;11.420;2023-05-20T14:35:49;10.53;;;9.90;;
8584;SDS011;7180;52.742;11.420;2023-05-20T14:38:15;10.70;;;10.10;;
8584;SDS011;7180;52.742;11.420;2023-05-20T14:40:41;10.77;;;9.97;;
8584;SDS011;7180;52.742;11.420;2023-05-20T14:43:06;10.90;;;10.10;;
8584;SDS011;7180;52.742;11.420;2023-05-20T14:45:31;11.13;;;10.40;;
8584;SDS011;7180;52.742;11.420;2023-05-20T14:47:56;10.57;;;9.97;;
8584;SDS011;7180;52.742;11.420;2023-05-20T14:50:22;11.00;;;10.40;;
8584;SDS011;7180;52.742;11.420;2023-05-20T14:52:48;9.97;;;9.37;;
8584;SDS011;7180;52.742;11.420;2023-05-20T14:55:13;10.43;;;9.83;;
8584;SDS011;7180;52.742;11.420;2023-05-20T14:57:38;9.83;;;9.23;;
8584;SDS011;7180;52.742;11.420;2023-05-20T15:00:04;11.20;;;10.50;;
8584;SDS011;7180;52.742;11.420;2023-05-20T15:02:29;10.43;;;9.83;;
8584;SDS011;7180;52.742;11.420;2023-05-20T15:04:55;10.30;;;9.70;;